createdAt,value
2017-10-10T00:02:20.175Z,13.00
2017-10-10T00:05:02.176Z,13.00
2017-10-10T00:07:30.435Z,12.90
2017-10-10T00:10:08.552Z,13.00
2017-10-10T00:12:36.811Z,13.00
2017-10-10T00:15:25.882Z,13.00
2017-10-10T00:17:54.149Z,12.90
2017-10-10T00:20:39.096Z,12.90
2017-10-10T00:23:07.390Z,13.00
2017-10-10T00:25:45.543Z,13.00
2017-10-10T00:28:13.837Z,13.00
2017-10-10T00:33:40.105Z,13.00
2017-10-10T00:36:08.371Z,12.90
2017-10-10T00:38:40.300Z,12.90
2017-10-10T00:41:08.568Z,12.90
2017-10-10T00:43:36.859Z,12.80
2017-10-10T00:46:06.408Z,12.80
2017-10-10T00:48:35.772Z,12.80
2017-10-10T00:51:07.217Z,12.90
2017-10-10T00:53:36.471Z,12.80
2017-10-10T00:56:04.731Z,12.90
2017-10-10T00:58:36.532Z,12.90
2017-10-10T01:01:04.796Z,12.80
2017-10-10T01:03:39.268Z,12.80
2017-10-10T01:06:07.514Z,12.80
2017-10-10T01:08:35.788Z,12.90
2017-10-10T01:11:07.202Z,12.90
2017-10-10T01:16:49.295Z,12.90
2017-10-10T01:19:17.588Z,12.90
2017-10-10T01:21:45.887Z,12.90
2017-10-10T01:24:14.143Z,12.90
2017-10-10T01:26:42.404Z,12.80
2017-10-10T01:29:29.860Z,12.90
2017-10-10T01:31:58.131Z,12.80
2017-10-10T01:34:29.850Z,12.90
2017-10-10T01:36:58.134Z,12.90
2017-10-10T01:39:35.483Z,12.80
2017-10-10T01:42:04.303Z,12.90
2017-10-10T01:44:33.225Z,12.90
2017-10-10T01:49:58.684Z,12.80
2017-10-10T01:52:26.993Z,12.80
2017-10-10T01:54:55.284Z,12.80
2017-10-10T01:57:23.590Z,12.80
2017-10-10T01:59:58.568Z,12.80
2017-10-10T02:02:26.878Z,12.90
2017-10-10T02:05:06.562Z,12.90
2017-10-10T02:07:34.858Z,12.90
2017-10-10T02:12:55.818Z,12.90
2017-10-10T02:15:24.091Z,12.90
2017-10-10T02:18:06.095Z,12.90
2017-10-10T02:20:37.108Z,12.80
2017-10-10T02:26:11.399Z,12.80
2017-10-10T02:28:39.682Z,12.80
2017-10-10T02:31:18.603Z,12.90
2017-10-10T02:33:46.928Z,12.90
2017-10-10T02:36:15.203Z,13.00
2017-10-10T02:38:43.497Z,12.90
2017-10-10T02:41:11.775Z,13.00
2017-10-10T02:43:53.034Z,12.90
2017-10-10T02:46:21.302Z,12.90
2017-10-10T02:48:49.577Z,12.90
2017-10-10T02:51:17.868Z,12.90
2017-10-10T02:53:49.330Z,12.80
2017-10-10T02:56:17.639Z,12.90
2017-10-10T02:58:51.563Z,12.90
2017-10-10T03:01:19.865Z,12.90
2017-10-10T03:03:49.082Z,13.00
2017-10-10T03:06:17.371Z,13.00
2017-10-10T03:08:45.651Z,13.00
2017-10-10T03:11:13.931Z,13.00
2017-10-10T03:13:46.125Z,13.10
2017-10-10T03:16:14.383Z,13.00
2017-10-10T03:18:42.654Z,13.10
2017-10-10T03:24:28.114Z,13.10
2017-10-10T03:26:56.402Z,13.00
2017-10-10T03:29:24.664Z,13.00
2017-10-10T03:32:04.293Z,13.00
2017-10-10T03:34:33.212Z,13.20
2017-10-10T03:37:04.963Z,13.10
2017-10-10T03:39:34.633Z,13.10
2017-10-10T03:42:05.256Z,13.10
2017-10-10T03:44:33.540Z,13.20
2017-10-10T03:47:08.596Z,13.20
2017-10-10T03:49:36.856Z,13.30
2017-10-10T03:52:08.928Z,13.20
2017-10-10T03:54:37.201Z,13.10
2017-10-10T03:57:22.474Z,13.10
2017-10-10T03:59:50.740Z,13.10
2017-10-10T04:05:36.003Z,13.00
2017-10-10T04:08:06.663Z,13.10
2017-10-10T04:10:34.929Z,13.00
2017-10-10T04:16:05.168Z,13.10
2017-10-10T04:18:35.708Z,13.00
2017-10-10T04:21:10.431Z,13.00
2017-10-10T04:23:39.381Z,13.00
2017-10-10T04:26:07.689Z,13.10
2017-10-10T04:28:35.955Z,13.10
2017-10-10T04:31:21.225Z,13.10
2017-10-10T04:33:49.513Z,13.10
2017-10-10T04:36:17.779Z,13.10
2017-10-10T04:38:46.118Z,13.10
2017-10-10T04:41:14.380Z,13.10
2017-10-10T04:43:43.576Z,13.10
2017-10-10T04:46:11.871Z,13.20
2017-10-10T04:48:48.461Z,13.20
2017-10-10T04:51:16.766Z,13.20
2017-10-10T04:53:48.812Z,13.20
2017-10-10T04:56:17.067Z,13.20
2017-10-10T04:58:55.540Z,13.20
2017-10-10T05:01:23.821Z,13.20
2017-10-10T05:04:05.087Z,13.30
2017-10-10T05:06:34.383Z,13.30
2017-10-10T05:09:21.790Z,13.30
2017-10-10T05:11:50.075Z,13.20
2017-10-10T05:14:35.265Z,13.20
2017-10-10T05:17:05.639Z,13.30
2017-10-10T05:19:34.814Z,13.20
2017-10-10T05:22:05.727Z,13.20
2017-10-10T05:24:40.547Z,13.10
2017-10-10T05:27:08.099Z,13.10
2017-10-10T05:29:46.532Z,13.20
2017-10-10T05:32:14.839Z,13.10
2017-10-10T05:34:45.107Z,13.20
2017-10-10T05:37:13.386Z,13.20
2017-10-10T05:39:54.719Z,13.20
2017-10-10T05:42:22.984Z,13.20
2017-10-10T05:44:57.279Z,13.20
2017-10-10T05:47:25.554Z,13.20
2017-10-10T05:49:56.913Z,13.20
2017-10-10T05:52:25.204Z,13.20
2017-10-10T05:55:06.456Z,13.20
2017-10-10T05:57:34.721Z,13.10
2017-10-10T06:00:05.600Z,13.10
2017-10-10T06:02:35.156Z,13.10
2017-10-10T06:05:13.687Z,13.20
2017-10-10T06:07:41.234Z,13.20
2017-10-10T06:10:09.501Z,13.10
2017-10-10T06:12:37.792Z,13.20
2017-10-10T06:15:20.613Z,13.20
2017-10-10T06:17:48.928Z,13.30
2017-10-10T06:20:17.237Z,13.20
2017-10-10T06:22:45.503Z,13.40
2017-10-10T06:25:23.845Z,13.30
2017-10-10T06:27:52.105Z,13.40
2017-10-10T06:30:20.422Z,13.30
2017-10-10T06:32:48.714Z,13.30
2017-10-10T06:35:30.680Z,13.40
2017-10-10T06:37:58.940Z,13.50
2017-10-10T06:40:27.397Z,13.50
2017-10-10T06:42:55.701Z,13.50
2017-10-10T06:45:36.875Z,13.40
2017-10-10T06:48:05.980Z,13.40
2017-10-10T06:50:36.676Z,13.40
2017-10-10T06:53:04.946Z,13.40
2017-10-10T06:55:34.715Z,13.40
2017-10-10T06:58:04.382Z,13.50
2017-10-10T07:00:36.389Z,13.50
2017-10-10T07:03:05.678Z,13.50
2017-10-10T07:05:47.996Z,13.50
2017-10-10T07:08:16.291Z,13.50
2017-10-10T07:11:07.782Z,13.50
2017-10-10T07:13:36.070Z,13.60
2017-10-10T07:16:06.319Z,13.70
2017-10-10T07:18:36.763Z,13.60
2017-10-10T07:21:05.695Z,13.80
2017-10-10T07:23:36.788Z,13.70
2017-10-10T07:26:05.787Z,13.60
2017-10-10T07:28:34.828Z,13.60
2017-10-10T07:31:04.364Z,13.60
2017-10-10T07:33:32.654Z,13.60
2017-10-10T07:36:00.951Z,13.70
2017-10-10T07:38:29.203Z,13.70
2017-10-10T07:40:57.460Z,13.70
2017-10-10T07:43:25.755Z,13.90
2017-10-10T07:45:54.027Z,14.00
2017-10-10T07:48:22.302Z,13.80
2017-10-10T07:50:50.607Z,13.90
2017-10-10T07:53:18.863Z,13.90
2017-10-10T07:55:47.133Z,13.90
2017-10-10T07:58:15.419Z,14.10
2017-10-10T08:00:43.689Z,14.10
2017-10-10T08:03:11.979Z,13.90
2017-10-10T08:05:40.250Z,14.00
2017-10-10T08:08:08.512Z,13.90
2017-10-10T08:10:36.813Z,14.00
2017-10-10T08:13:06.307Z,14.00
2017-10-10T08:15:36.410Z,14.10
2017-10-10T08:18:06.533Z,14.00
2017-10-10T08:20:34.783Z,14.00
2017-10-10T08:23:05.436Z,14.00
2017-10-10T08:25:34.512Z,14.10
2017-10-10T08:28:03.975Z,14.10
2017-10-10T08:30:32.236Z,14.20
2017-10-10T08:33:00.496Z,14.40
2017-10-10T08:35:28.788Z,14.40
2017-10-10T08:37:57.098Z,14.30
2017-10-10T08:40:27.287Z,14.30
2017-10-10T08:42:55.587Z,14.40
2017-10-10T08:45:24.827Z,14.50
2017-10-10T08:47:53.093Z,14.60
2017-10-10T08:50:21.418Z,14.60
2017-10-10T08:52:53.219Z,14.70
2017-10-10T08:55:21.507Z,14.60
2017-10-10T08:57:54.127Z,14.50
2017-10-10T09:00:22.417Z,14.50
2017-10-10T09:02:50.670Z,14.50
2017-10-10T09:05:18.959Z,14.60
2017-10-10T09:07:47.224Z,14.80
2017-10-10T09:10:15.538Z,14.90
2017-10-10T09:12:55.701Z,15.20
2017-10-10T09:15:24.007Z,15.30
2017-10-10T09:17:54.313Z,15.20
2017-10-10T09:20:22.578Z,15.20
2017-10-10T09:22:51.788Z,15.20
2017-10-10T09:25:20.103Z,15.20
2017-10-10T09:27:48.376Z,15.20
2017-10-10T09:30:16.664Z,15.30
2017-10-10T09:32:46.850Z,15.30
2017-10-10T09:35:15.161Z,15.20
2017-10-10T09:37:43.427Z,15.30
2017-10-10T09:40:11.687Z,15.40
2017-10-10T09:42:47.221Z,15.40
2017-10-10T09:45:15.520Z,15.50
2017-10-10T09:47:44.737Z,15.50
2017-10-10T09:50:13.023Z,15.50
2017-10-10T09:52:41.283Z,15.60
2017-10-10T09:55:13.161Z,15.60
2017-10-10T09:57:41.451Z,15.70
2017-10-10T10:00:10.655Z,15.60
2017-10-10T10:02:38.948Z,15.50
2017-10-10T10:05:07.235Z,15.50
2017-10-10T10:07:36.777Z,15.70
2017-10-10T10:10:05.068Z,15.80
2017-10-10T10:12:34.333Z,15.80
2017-10-10T10:15:19.809Z,15.70
2017-10-10T10:17:48.068Z,15.60
2017-10-10T10:20:17.317Z,15.50
2017-10-10T10:22:45.572Z,15.50
2017-10-10T10:25:13.867Z,15.50
2017-10-10T10:27:42.131Z,15.40
2017-10-10T10:30:20.313Z,15.40
2017-10-10T10:32:48.623Z,15.50
2017-10-10T10:35:17.840Z,15.50
2017-10-10T10:37:46.154Z,15.50
2017-10-10T10:40:16.420Z,15.60
2017-10-10T10:42:44.711Z,15.60
2017-10-10T10:45:12.995Z,15.60
2017-10-10T10:47:41.250Z,15.60
2017-10-10T10:50:09.566Z,15.50
2017-10-10T10:52:37.826Z,15.80
2017-10-10T10:55:06.087Z,15.90
2017-10-10T10:57:35.648Z,16.00
2017-10-10T11:00:06.328Z,16.00
2017-10-10T11:02:45.384Z,16.00
2017-10-10T11:05:13.650Z,15.90
2017-10-10T11:07:41.939Z,15.80
2017-10-10T11:10:10.208Z,15.90
2017-10-10T11:12:44.543Z,15.80
2017-10-10T11:15:12.963Z,15.80
2017-10-10T11:17:41.262Z,15.90
2017-10-10T11:20:09.524Z,15.80
2017-10-10T11:22:37.783Z,15.80
2017-10-10T11:25:06.886Z,15.80
2017-10-10T11:27:36.103Z,15.90
2017-10-10T11:30:14.337Z,15.90
2017-10-10T11:32:41.840Z,15.90
2017-10-10T11:35:10.099Z,15.90
2017-10-10T11:37:46.204Z,16.00
2017-10-10T11:40:17.036Z,15.90
2017-10-10T11:42:45.518Z,15.80
2017-10-10T11:45:13.988Z,15.90
2017-10-10T11:48:05.609Z,15.90
2017-10-10T11:50:35.274Z,16.10
2017-10-10T11:53:06.723Z,16.10
2017-10-10T11:55:35.020Z,16.00
2017-10-10T11:58:06.016Z,15.90
2017-10-10T12:00:36.171Z,16.10
2017-10-10T12:03:08.689Z,16.10
2017-10-10T12:05:36.984Z,16.00
2017-10-10T12:08:06.420Z,16.00
2017-10-10T12:10:35.049Z,16.00
2017-10-10T12:13:05.160Z,15.80
2017-10-10T12:15:34.447Z,15.80
2017-10-10T12:18:02.715Z,15.90
2017-10-10T12:20:34.487Z,15.80
2017-10-10T12:23:02.739Z,16.00
2017-10-10T12:25:31.052Z,15.90
2017-10-10T12:27:59.351Z,16.00
2017-10-10T12:30:31.158Z,16.00
2017-10-10T12:32:59.466Z,16.00
2017-10-10T12:35:27.731Z,15.90
2017-10-10T12:37:56.042Z,15.90
2017-10-10T12:40:27.454Z,15.90
2017-10-10T12:42:55.847Z,15.90
2017-10-10T12:45:45.312Z,15.80
2017-10-10T12:48:13.607Z,15.80
2017-10-10T12:50:52.080Z,15.80
2017-10-10T12:53:19.589Z,15.80
2017-10-10T12:55:55.040Z,15.70
2017-10-10T12:58:23.310Z,15.70
2017-10-10T13:01:08.807Z,15.70
2017-10-10T13:03:37.063Z,15.70
2017-10-10T13:06:06.300Z,15.70
2017-10-10T13:08:36.008Z,15.70
2017-10-10T13:11:05.622Z,15.70
2017-10-10T13:13:35.259Z,15.60
2017-10-10T13:16:06.976Z,15.60
2017-10-10T13:18:36.180Z,15.70
2017-10-10T13:21:05.909Z,15.60
2017-10-10T13:23:35.881Z,15.70
2017-10-10T13:26:12.283Z,15.80
2017-10-10T13:28:47.921Z,15.80
2017-10-10T13:31:16.176Z,15.80
2017-10-10T13:33:49.123Z,15.70
2017-10-10T13:36:17.396Z,15.70
2017-10-10T13:38:45.652Z,15.70
2017-10-10T13:41:14.872Z,15.80
2017-10-10T13:43:43.124Z,15.70
2017-10-10T13:46:11.397Z,15.70
2017-10-10T13:48:39.687Z,15.60
2017-10-10T13:51:07.964Z,15.40
2017-10-10T13:53:36.267Z,15.40
2017-10-10T13:56:12.937Z,15.50
2017-10-10T13:58:41.239Z,15.60
2017-10-10T14:01:09.522Z,15.50
2017-10-10T14:03:39.709Z,15.40
2017-10-10T14:06:08.010Z,15.30
2017-10-10T14:08:43.485Z,15.30
2017-10-10T14:11:11.777Z,15.20
2017-10-10T14:13:40.048Z,15.20
2017-10-10T14:16:08.335Z,15.20
2017-10-10T14:18:49.533Z,15.30
2017-10-10T14:21:17.860Z,15.30
2017-10-10T14:23:46.131Z,15.20
2017-10-10T14:26:14.395Z,15.30
2017-10-10T14:28:48.525Z,15.40
2017-10-10T14:31:16.784Z,15.30
2017-10-10T14:33:46.004Z,15.40
2017-10-10T14:36:14.288Z,15.50
2017-10-10T14:38:45.749Z,15.50
2017-10-10T14:41:14.019Z,15.60
2017-10-10T14:43:45.939Z,15.60
2017-10-10T14:46:14.204Z,15.70
2017-10-10T14:48:43.435Z,15.60
2017-10-10T14:51:11.811Z,15.70
2017-10-10T14:53:40.119Z,15.60
2017-10-10T14:56:08.420Z,15.60
2017-10-10T14:58:37.034Z,15.60
2017-10-10T15:01:06.606Z,15.60
2017-10-10T15:03:36.557Z,15.60
2017-10-10T15:06:05.038Z,15.60
2017-10-10T15:08:36.245Z,15.60
2017-10-10T15:11:05.083Z,15.50
2017-10-10T15:13:49.564Z,15.50
2017-10-10T15:16:17.842Z,15.50
2017-10-10T15:18:46.115Z,15.50
2017-10-10T15:21:14.414Z,15.50
2017-10-10T15:23:55.153Z,15.50
2017-10-10T15:26:23.447Z,15.50
2017-10-10T15:28:52.664Z,15.50
2017-10-10T15:31:20.952Z,15.50
2017-10-10T15:33:49.216Z,15.60
2017-10-10T15:36:18.506Z,15.50
2017-10-10T15:38:46.770Z,15.60
2017-10-10T15:41:15.024Z,15.60
2017-10-10T15:43:43.319Z,15.50
2017-10-10T15:46:11.577Z,15.60
2017-10-10T15:48:39.854Z,15.70
2017-10-10T15:51:07.427Z,15.60
2017-10-10T15:53:34.915Z,15.60
2017-10-10T15:56:08.726Z,15.60
2017-10-10T15:58:36.619Z,15.60
2017-10-10T16:01:06.870Z,15.70
2017-10-10T16:03:35.161Z,15.70
2017-10-10T16:06:06.976Z,15.60
2017-10-10T16:08:36.895Z,15.50
2017-10-10T16:11:05.190Z,15.40
2017-10-10T16:13:35.500Z,15.50
2017-10-10T16:16:07.211Z,15.50
2017-10-10T16:18:36.606Z,15.60
2017-10-10T16:21:12.051Z,15.50
2017-10-10T16:23:40.312Z,15.50
2017-10-10T16:26:12.471Z,15.50
2017-10-10T16:28:44.065Z,15.50
2017-10-10T16:31:12.366Z,15.40
2017-10-10T16:33:41.568Z,15.40
2017-10-10T16:36:09.889Z,15.40
2017-10-10T16:38:38.152Z,15.40
2017-10-10T16:41:06.851Z,15.40
2017-10-10T16:43:39.975Z,15.40
2017-10-10T16:46:10.144Z,15.30
2017-10-10T16:48:44.934Z,15.40
2017-10-10T16:51:13.202Z,15.20
2017-10-10T16:53:42.439Z,15.30
2017-10-10T16:56:10.728Z,15.20
2017-10-10T16:58:45.996Z,15.30
2017-10-10T17:01:14.270Z,15.30
2017-10-10T17:03:42.543Z,15.30
2017-10-10T17:06:10.847Z,15.30
2017-10-10T17:08:39.103Z,15.20
2017-10-10T17:11:07.797Z,15.10
2017-10-10T17:13:36.675Z,15.10
2017-10-10T17:16:05.563Z,15.10
2017-10-10T17:18:35.511Z,15.10
2017-10-10T17:21:04.538Z,15.00
2017-10-10T17:23:37.784Z,15.00
2017-10-10T17:26:06.647Z,15.00
2017-10-10T17:28:35.483Z,15.00
2017-10-10T17:31:04.626Z,15.00
2017-10-10T17:33:33.954Z,15.00
2017-10-10T17:36:02.264Z,15.10
2017-10-10T17:38:31.431Z,15.00
2017-10-10T17:40:59.689Z,15.10
2017-10-10T17:43:27.976Z,15.00
2017-10-10T17:45:56.258Z,15.00
2017-10-10T17:48:26.511Z,15.00
2017-10-10T17:50:54.793Z,14.90
2017-10-10T17:53:24.091Z,15.00
2017-10-10T17:55:52.355Z,15.00
2017-10-10T17:58:23.687Z,15.10
2017-10-10T18:00:51.962Z,15.10
2017-10-10T18:03:21.192Z,15.10
2017-10-10T18:05:49.469Z,15.00
2017-10-10T18:08:17.747Z,15.00
2017-10-10T18:10:46.004Z,15.10
2017-10-10T18:13:18.219Z,15.10
2017-10-10T18:15:46.503Z,15.00
2017-10-10T18:18:15.773Z,15.10
2017-10-10T18:20:44.036Z,15.20
2017-10-10T18:23:12.307Z,15.10
2017-10-10T18:25:40.620Z,15.10
2017-10-10T18:28:09.806Z,15.10
2017-10-10T18:30:38.072Z,15.20
2017-10-10T18:33:13.499Z,15.10
2017-10-10T18:35:41.784Z,15.10
2017-10-10T18:38:10.040Z,15.10
2017-10-10T18:40:38.333Z,15.10
2017-10-10T18:43:07.520Z,15.10
2017-10-10T18:45:36.792Z,15.10
2017-10-10T18:48:05.115Z,15.10
2017-10-10T18:50:34.922Z,15.10
2017-10-10T18:53:04.624Z,15.10
2017-10-10T18:55:34.950Z,15.20
2017-10-10T18:58:05.355Z,15.20
2017-10-10T19:00:36.172Z,15.20
2017-10-10T19:03:06.053Z,15.10
2017-10-10T19:05:47.208Z,15.10
2017-10-10T19:08:15.490Z,15.10
2017-10-10T19:10:43.763Z,15.00
2017-10-10T19:13:17.541Z,15.00
2017-10-10T19:15:45.814Z,15.00
2017-10-10T19:18:21.428Z,14.90
2017-10-10T19:20:49.699Z,14.90
2017-10-10T19:23:17.991Z,14.90
2017-10-10T19:25:46.297Z,15.00
2017-10-10T19:28:19.178Z,14.90
2017-10-10T19:30:47.430Z,14.90
2017-10-10T19:33:28.078Z,14.80
2017-10-10T19:35:56.327Z,14.90
2017-10-10T19:38:24.575Z,15.00
2017-10-10T19:40:53.007Z,15.00
2017-10-10T19:43:25.582Z,15.00
2017-10-10T19:45:53.868Z,15.10
2017-10-10T19:48:22.164Z,15.10
2017-10-10T19:50:50.448Z,15.10
2017-10-10T19:53:18.705Z,15.20
2017-10-10T19:55:47.048Z,15.10
2017-10-10T19:58:22.577Z,15.10
2017-10-10T20:00:50.851Z,15.10
2017-10-10T20:03:21.103Z,15.00
2017-10-10T20:05:49.352Z,15.00
2017-10-10T20:08:17.695Z,15.00
2017-10-10T20:10:45.963Z,15.00
2017-10-10T20:13:14.296Z,15.10
2017-10-10T20:15:42.566Z,15.00
2017-10-10T20:18:12.871Z,15.00
2017-10-10T20:20:41.187Z,15.00
2017-10-10T20:23:09.447Z,15.00
2017-10-10T20:25:44.231Z,15.10
2017-10-10T20:28:12.488Z,15.00
2017-10-10T20:30:42.742Z,15.10
2017-10-10T20:33:11.008Z,15.00
2017-10-10T20:36:05.342Z,15.10
2017-10-10T20:38:34.911Z,15.00
2017-10-10T20:41:06.379Z,15.00
2017-10-10T20:43:35.087Z,15.10
2017-10-10T20:46:04.626Z,15.10
2017-10-10T20:48:33.864Z,15.00
2017-10-10T20:51:05.020Z,15.10
2017-10-10T20:53:34.962Z,15.00
2017-10-10T20:56:06.834Z,15.00
2017-10-10T20:58:36.521Z,15.00
2017-10-10T21:01:05.406Z,15.00
2017-10-10T21:03:33.697Z,15.00
2017-10-10T21:06:04.408Z,15.00
2017-10-10T21:08:32.704Z,14.90
2017-10-10T21:11:06.937Z,14.90
2017-10-10T21:13:35.238Z,14.90
2017-10-10T21:16:06.572Z,14.90
2017-10-10T21:18:36.033Z,14.90
2017-10-10T21:21:06.080Z,14.80
2017-10-10T21:23:36.687Z,14.90
2017-10-10T21:26:06.048Z,14.80
2017-10-10T21:28:36.092Z,14.80
2017-10-10T21:31:05.555Z,14.90
2017-10-10T21:33:35.507Z,14.90
2017-10-10T21:36:09.413Z,14.80
2017-10-10T21:38:37.734Z,14.90
2017-10-10T21:41:07.251Z,14.90
2017-10-10T21:43:36.695Z,14.80
2017-10-10T21:46:06.923Z,14.70
2017-10-10T21:48:35.243Z,14.80
2017-10-10T21:51:06.693Z,14.80
2017-10-10T21:53:35.971Z,14.80
2017-10-10T21:56:05.162Z,14.80
2017-10-10T21:58:34.709Z,14.80
2017-10-10T22:01:04.832Z,14.80
2017-10-10T22:03:34.168Z,14.80
2017-10-10T22:06:06.235Z,14.80
2017-10-10T22:08:37.019Z,14.80
2017-10-10T22:11:07.237Z,14.80
2017-10-10T22:13:36.741Z,14.70
2017-10-10T22:16:06.110Z,14.80
2017-10-10T22:18:36.799Z,14.80
2017-10-10T22:21:05.107Z,14.70
2017-10-10T22:23:34.620Z,14.70
2017-10-10T22:26:04.049Z,14.80
2017-10-10T22:28:32.363Z,14.70
2017-10-10T22:31:05.825Z,14.70
2017-10-10T22:33:35.334Z,14.70
2017-10-10T22:36:04.692Z,14.70
2017-10-10T22:38:34.104Z,14.70
2017-10-10T22:41:03.838Z,14.70
2017-10-10T22:43:32.104Z,14.70
2017-10-10T22:46:10.237Z,14.60
2017-10-10T22:48:38.497Z,14.60
2017-10-10T22:51:08.689Z,14.60
2017-10-10T22:53:36.977Z,14.50
2017-10-10T22:56:07.227Z,14.50
2017-10-10T22:58:36.781Z,14.50
2017-10-10T23:01:05.083Z,14.50
2017-10-10T23:03:34.702Z,14.40
2017-10-10T23:06:04.723Z,14.40
2017-10-10T23:08:34.657Z,14.40
2017-10-10T23:11:04.719Z,14.30
2017-10-10T23:13:34.865Z,14.40
2017-10-10T23:16:06.894Z,14.40
2017-10-10T23:18:36.747Z,14.40
2017-10-10T23:21:05.865Z,14.40
2017-10-10T23:23:44.203Z,14.40
2017-10-10T23:26:12.461Z,14.50
2017-10-10T23:28:40.763Z,14.40
2017-10-10T23:31:09.044Z,14.40
2017-10-10T23:33:37.380Z,14.40
2017-10-10T23:36:05.651Z,14.40
2017-10-10T23:38:43.739Z,14.50
2017-10-10T23:41:11.996Z,14.40
2017-10-10T23:43:40.302Z,14.50
2017-10-10T23:46:08.560Z,14.40
2017-10-10T23:48:43.097Z,14.30
2017-10-10T23:51:11.423Z,14.40
2017-10-10T23:53:40.607Z,14.40
2017-10-10T23:56:08.868Z,14.30
2017-10-10T23:58:37.167Z,14.40
